Terminal Aerodrome Forecast
Issued by NWS Tuscon, AZ

Home | Current Version | Previous Version | Text Only | Print | Product List | Glossary On
Versions: 1 2 3 4 5 6 7 8 9 10 11 12 13 14 15 16 17 18 19 20
000
FTUS45 KTWC 181100 AAA
TAFTUS
TAF AMD
KTUS 181159Z 1812/1912 16004KT P6SM OVC060
      TEMPO 1812/1815 4SM BR
     FM181700 25005KT P6SM -SHRA BKN035 OVC060
     FM190100 32005KT P6SM SCT050 BKN120
     FM190700 15004KT P6SM SCT150=

USA.gov is the U.S. government's official web portal to all federal, state and local government web resources and services.